Time;durP1;ratioP1;P1;durP2;ratioP2;P2;SDS_P1;SDS_P2;PMS_P1;PMS_P2;Temp;Humidity;BMP_temperature;BMP_pressure;BME280_temperature;BME280_humidity;BME280_pressure;Samples;Min_cycle;Max_cycle;Signal;HPM_P1;HPM_P2
2022/08/31 00:06:15;;;;;;;0.57;0.17;;;14.40;99.90;;;;;;5054505;28;20049;-74
2022/08/31 00:08:41;;;;;;;0.68;0.43;;;14.40;99.90;;;;;;5054403;28;20037;-74
2022/08/31 00:11:09;;;;;;;0.13;0.13;;;14.30;99.90;;;;;;5054012;28;20423;-75
2022/08/31 00:13:35;;;;;;;0.88;0.60;;;14.40;99.90;;;;;;5054369;28;20060;-74
2022/08/31 00:16:01;;;;;;;0.50;0.50;;;14.40;99.90;;;;;;5054507;28;20045;-74
2022/08/31 00:18:27;;;;;;;0.60;0.17;;;14.40;99.90;;;;;;5054117;28;20102;-75
2022/08/31 00:20:53;;;;;;;0.43;0.32;;;14.40;99.90;;;;;;5054378;28;20187;-74
2022/08/31 00:23:19;;;;;;;0.17;0.13;;;14.40;99.90;;;;;;5054716;28;20045;-74
2022/08/31 00:25:47;;;;;;;0.28;0.25;;;14.70;99.90;;;;;;5054059;28;20060;-74
2022/08/31 00:28:14;;;;;;;0.20;0.20;;;14.40;99.90;;;;;;5054213;28;20033;-75
2022/08/31 00:30:41;;;;;;;1.05;0.20;;;14.30;99.90;;;;;;5054339;28;20037;-74
2022/08/31 00:33:07;;;;;;;2.13;0.50;;;14.20;99.90;;;;;;5053981;28;20036;-73
2022/08/31 00:35:35;;;;;;;0.10;0.05;;;14.10;99.90;;;;;;5054481;28;20500;-74
2022/08/31 00:38:02;;;;;;;0.30;0.10;;;14.10;99.90;;;;;;5054001;28;20098;-74
2022/08/31 00:40:28;;;;;;;2.35;1.60;;;13.90;99.90;;;;;;5054054;28;20095;-73
2022/08/31 00:42:54;;;;;;;0.52;0.10;;;13.90;99.90;;;;;;5054208;28;20499;-74
2022/08/31 00:45:21;;;;;;;0.25;0.20;;;13.80;99.90;;;;;;5053821;28;20483;-74
2022/08/31 00:47:47;;;;;;;0.60;0.30;;;13.70;99.90;;;;;;5053685;28;20479;-75
2022/08/31 00:50:15;;;;;;;0.00;0.00;;;13.60;99.90;;;;;;5053865;28;20116;-74
2022/08/31 00:52:47;;;;;;;0.00;0.00;;;13.60;99.90;;;;;;5053891;28;20064;-73
2022/08/31 00:55:22;;;;;;;0.25;0.20;;;13.50;99.90;;;;;;5053717;28;20052;-74
2022/08/31 00:57:50;;;;;;;0.03;0.03;;;13.40;99.90;;;;;;5053284;28;20049;-75
2022/08/31 01:00:20;;;;;;;0.00;0.00;;;13.40;99.90;;;;;;5053465;28;20114;-74
2022/08/31 01:02:46;;;;;;;0.28;0.28;;;13.30;99.90;;;;;;5054512;28;20049;-73
2022/08/31 01:05:12;;;;;;;0.20;0.20;;;13.20;99.90;;;;;;5054043;28;20037;-74
2022/08/31 01:07:39;;;;;;;0.10;0.10;;;13.20;99.90;;;;;;5052749;28;20491;-74
2022/08/31 01:10:06;;;;;;;0.35;0.32;;;13.20;99.90;;;;;;5053780;28;20487;-77
2022/08/31 01:12:32;;;;;;;0.20;0.15;;;13.10;99.90;;;;;;5053869;28;20052;-74
2022/08/31 01:15:00;;;;;;;1.67;0.73;;;13.00;99.90;;;;;;5053360;28;20045;-74
2022/08/31 01:17:26;;;;;;;0.32;0.28;;;13.10;99.90;;;;;;5053779;28;20037;-75
2022/08/31 01:20:21;;;;;;;0.20;0.13;;;13.00;99.90;;;;;;5053422;28;20043;-74
2022/08/31 01:23:11;;;;;;;0.00;0.00;;;12.90;99.90;;;;;;5006997;28;20089;-75
2022/08/31 01:25:39;;;;;;;0.10;0.08;;;12.80;99.90;;;;;;5053531;28;20044;-75
2022/08/31 01:28:07;;;;;;;0.00;0.00;;;12.70;99.90;;;;;;5053202;28;20068;-74
2022/08/31 01:30:33;;;;;;;0.00;0.00;;;12.70;99.90;;;;;;5053050;28;20120;-74
2022/08/31 01:32:59;;;;;;;0.10;0.00;;;12.60;99.90;;;;;;5053263;28;20051;-75
2022/08/31 01:35:26;;;;;;;0.00;0.00;;;12.60;99.90;;;;;;5053334;28;20120;-74
2022/08/31 01:37:52;;;;;;;0.00;0.00;;;12.50;99.90;;;;;;5052575;28;20503;-74
2022/08/31 01:40:18;;;;;;;0.52;0.10;;;12.30;99.90;;;;;;5053010;28;20518;-74
2022/08/31 01:42:43;;;;;;;0.00;0.00;;;12.80;99.90;;;;;;5053215;28;20044;-74
2022/08/31 01:45:11;;;;;;;0.10;0.00;;;12.10;99.90;;;;;;5052834;28;20052;-74
2022/08/31 01:47:38;;;;;;;0.00;0.00;;;12.10;99.90;;;;;;5052568;28;20120;-74
2022/08/31 01:50:05;;;;;;;0.00;0.00;;;12.00;99.90;;;;;;5052407;28;20041;-74
2022/08/31 01:52:32;;;;;;;0.00;0.00;;;11.90;99.90;;;;;;5052531;28;20064;-75
2022/08/31 01:54:59;;;;;;;0.00;0.00;;;11.90;99.90;;;;;;5052632;28;20051;-74
2022/08/31 01:57:25;;;;;;;0.00;0.00;;;11.80;99.90;;;;;;5049875;28;20063;-74
2022/08/31 01:59:51;;;;;;;0.00;0.00;;;11.70;99.90;;;;;;5053093;28;20049;-74
2022/08/31 02:02:16;;;;;;;0.05;0.05;;;11.70;99.90;;;;;;5052797;28;20056;-75
2022/08/31 02:04:42;;;;;;;0.00;0.00;;;11.60;99.90;;;;;;5052615;28;20041;-74
2022/08/31 02:07:07;;;;;;;0.00;0.00;;;11.60;99.90;;;;;;5051916;28;20060;-74
2022/08/31 02:09:33;;;;;;;0.00;0.00;;;11.50;99.90;;;;;;5052286;28;20044;-74
2022/08/31 02:11:58;;;;;;;0.00;0.00;;;11.40;99.90;;;;;;5052746;28;20044;-74
2022/08/31 02:14:24;;;;;;;0.00;0.00;;;11.30;99.90;;;;;;5052937;28;20041;-73
2022/08/31 02:16:50;;;;;;;0.00;0.00;;;11.30;99.90;;;;;;5053827;28;20381;-74
2022/08/31 02:19:15;;;;;;;0.00;0.00;;;11.10;99.90;;;;;;5034579;28;20103;-75
2022/08/31 02:21:41;;;;;;;0.00;0.00;;;11.00;99.90;;;;;;5052844;28;20041;-74
2022/08/31 02:24:10;;;;;;;0.00;0.00;;;10.90;99.90;;;;;;5052632;28;20041;-73
2022/08/31 02:26:35;;;;;;;0.00;0.00;;;10.90;99.90;;;;;;5052772;28;20033;-74
2022/08/31 02:29:01;;;;;;;0.00;0.00;;;11.00;99.90;;;;;;5052042;28;20099;-74
2022/08/31 02:31:27;;;;;;;0.00;0.00;;;11.10;99.90;;;;;;5052285;28;20483;-74
2022/08/31 02:33:52;;;;;;;0.00;0.00;;;11.20;99.90;;;;;;5052553;28;20129;-73
2022/08/31 02:36:18;;;;;;;0.00;0.00;;;11.10;99.90;;;;;;5051812;28;20044;-74
2022/08/31 02:38:43;;;;;;;0.20;0.20;;;11.00;99.90;;;;;;5052508;28;20169;-73
2022/08/31 02:41:09;;;;;;;0.00;0.00;;;11.00;99.90;;;;;;5052906;28;20148;-74
2022/08/31 02:43:34;;;;;;;0.00;0.00;;;11.10;99.90;;;;;;5052672;28;20124;-73
2022/08/31 02:46:00;;;;;;;0.00;0.00;;;10.90;99.90;;;;;;5052230;28;20041;-73
2022/08/31 02:48:26;;;;;;;0.00;0.00;;;10.90;99.90;;;;;;5051894;28;20041;-74
2022/08/31 02:50:53;;;;;;;0.90;0.40;;;11.00;99.90;;;;;;5034787;28;20072;-75
2022/08/31 02:53:21;;;;;;;0.00;0.00;;;11.00;99.90;;;;;;5052686;28;20072;-74
2022/08/31 02:55:47;;;;;;;0.00;0.00;;;10.90;99.90;;;;;;5034705;28;20106;-73
2022/08/31 02:58:13;;;;;;;0.05;0.05;;;11.00;99.90;;;;;;5051788;28;20045;-74
2022/08/31 03:00:44;;;;;;;0.10;0.08;;;11.00;99.90;;;;;;5050862;28;20049;-74
2022/08/31 03:03:09;;;;;;;0.70;0.30;;;11.00;99.90;;;;;;5050937;28;20072;-74
2022/08/31 03:05:35;;;;;;;0.30;0.10;;;11.00;99.90;;;;;;5050817;28;20077;-73
2022/08/31 03:08:01;;;;;;;0.00;0.00;;;11.20;99.90;;;;;;5050475;28;20494;-73
2022/08/31 03:10:26;;;;;;;0.00;0.00;;;10.90;99.90;;;;;;5050832;28;20047;-74
2022/08/31 03:12:52;;;;;;;0.00;0.00;;;10.80;99.90;;;;;;5050817;28;20511;-73
2022/08/31 03:15:20;;;;;;;0.08;0.03;;;10.80;99.90;;;;;;5050447;28;20480;-73
2022/08/31 03:17:46;;;;;;;0.60;0.52;;;10.80;99.90;;;;;;5050369;28;20115;-73
2022/08/31 03:20:13;;;;;;;0.10;0.05;;;10.70;99.90;;;;;;5032954;28;20040;-73
2022/08/31 03:22:39;;;;;;;0.00;0.00;;;10.60;99.90;;;;;;5050361;28;20526;-72
2022/08/31 03:25:06;;;;;;;0.00;0.00;;;10.50;99.90;;;;;;5050838;28;20073;-73
2022/08/31 03:27:32;;;;;;;0.00;0.00;;;10.50;99.90;;;;;;5049953;28;20413;-74
2022/08/31 03:29:58;;;;;;;0.00;0.00;;;10.50;99.90;;;;;;5051809;28;20036;-72
2022/08/31 03:32:26;;;;;;;0.00;0.00;;;10.40;99.90;;;;;;5054043;28;20045;-74
2022/08/31 03:34:58;;;;;;;0.52;0.45;;;10.30;99.90;;;;;;5054099;28;20147;-75
2022/08/31 03:37:24;;;;;;;0.00;0.00;;;10.20;99.90;;;;;;5053460;28;20032;-73
2022/08/31 03:39:50;;;;;;;0.00;0.00;;;10.10;99.90;;;;;;5053683;28;20052;-73
2022/08/31 03:42:16;;;;;;;0.00;0.00;;;9.90;99.90;;;;;;5053915;28;20106;-74
2022/08/31 03:44:42;;;;;;;0.00;0.00;;;9.80;99.90;;;;;;5053933;28;20041;-73
2022/08/31 03:47:08;;;;;;;0.00;0.00;;;9.80;99.90;;;;;;5053452;28;20151;-73
2022/08/31 03:49:34;;;;;;;0.10;0.00;;;9.70;99.90;;;;;;5053856;28;20052;-73
2022/08/31 03:52:01;;;;;;;0.20;0.20;;;9.70;99.90;;;;;;5053851;28;20059;-73
2022/08/31 03:54:26;;;;;;;0.00;0.00;;;9.70;99.90;;;;;;5053276;28;20369;-73
2022/08/31 03:56:52;;;;;;;0.00;0.00;;;9.50;99.90;;;;;;5053472;28;20091;-73
2022/08/31 03:59:17;;;;;;;0.00;0.00;;;9.50;99.90;;;;;;5053636;28;20053;-73
2022/08/31 04:01:43;;;;;;;0.00;0.00;;;9.50;99.90;;;;;;5053701;28;20049;-74
2022/08/31 04:04:11;;;;;;;0.00;0.00;;;9.50;99.90;;;;;;5053580;28;20049;-72
2022/08/31 04:06:39;;;;;;;0.00;0.00;;;9.40;99.90;;;;;;5053337;28;20033;-74
2022/08/31 04:09:05;;;;;;;0.00;0.00;;;9.40;99.90;;;;;;5053559;28;20482;-73
2022/08/31 04:11:30;;;;;;;0.00;0.00;;;9.40;99.90;;;;;;5053837;28;20040;-73
2022/08/31 04:13:56;;;;;;;0.00;0.00;;;9.30;99.90;;;;;;5053655;28;20049;-73
2022/08/31 04:16:23;;;;;;;0.00;0.00;;;9.20;99.90;;;;;;5053415;28;20044;-73
2022/08/31 04:18:49;;;;;;;0.00;0.00;;;9.10;99.90;;;;;;5053510;28;20502;-73
2022/08/31 04:21:26;;;;;;;0.00;0.00;;;9.00;99.90;;;;;;5053215;28;20037;-74
2022/08/31 04:23:53;;;;;;;0.00;0.00;;;9.00;99.90;;;;;;5053359;28;20115;-73
2022/08/31 04:26:25;;;;;;;0.00;0.00;;;8.90;99.90;;;;;;5051032;28;20041;-73
2022/08/31 04:28:51;;;;;;;0.08;0.08;;;8.90;99.90;;;;;;5050814;28;20044;-74
2022/08/31 04:31:17;;;;;;;0.00;0.00;;;8.90;99.90;;;;;;5050922;28;20037;-73
2022/08/31 04:33:43;;;;;;;0.00;0.00;;;8.90;99.90;;;;;;5050685;28;20492;-72
2022/08/31 04:36:11;;;;;;;0.00;0.00;;;8.90;99.90;;;;;;5050449;28;20087;-72
2022/08/31 04:38:40;;;;;;;0.00;0.00;;;8.80;99.90;;;;;;5052352;28;20037;-74
2022/08/31 04:41:09;;;;;;;0.88;0.22;;;8.80;99.90;;;;;;5055016;28;20438;-73
2022/08/31 04:43:36;;;;;;;0.00;0.00;;;8.90;99.90;;;;;;5055992;28;20536;-74
2022/08/31 04:46:06;;;;;;;0.00;0.00;;;8.90;99.90;;;;;;5055706;28;20033;-72
2022/08/31 04:48:33;;;;;;;0.00;0.00;;;8.90;99.90;;;;;;5056073;28;20049;-73
2022/08/31 04:51:04;;;;;;;0.00;0.00;;;8.90;99.90;;;;;;5055959;28;20045;-73
2022/08/31 04:53:30;;;;;;;0.00;0.00;;;9.00;99.90;;;;;;5055203;28;20045;-72
2022/08/31 04:55:56;;;;;;;0.00;0.00;;;9.00;99.90;;;;;;5055670;28;20052;-73
2022/08/31 04:58:22;;;;;;;0.00;0.00;;;9.10;99.90;;;;;;5054837;28;20045;-73
2022/08/31 05:00:51;;;;;;;0.00;0.00;;;9.10;99.90;;;;;;5054835;28;20126;-73
2022/08/31 05:03:18;;;;;;;0.00;0.00;;;9.20;99.90;;;;;;5054405;28;20041;-73
2022/08/31 05:05:49;;;;;;;0.00;0.00;;;9.20;99.90;;;;;;5054530;28;20041;-73
2022/08/31 05:08:16;;;;;;;0.00;0.00;;;9.20;99.90;;;;;;5054359;28;20115;-73
2022/08/31 05:10:41;;;;;;;0.00;0.00;;;9.30;99.90;;;;;;5054696;28;20053;-73
2022/08/31 05:13:07;;;;;;;0.00;0.00;;;9.30;99.90;;;;;;5054972;28;20037;-74
2022/08/31 05:15:33;;;;;;;0.00;0.00;;;9.30;99.90;;;;;;5054930;28;20056;-73
2022/08/31 05:17:59;;;;;;;0.00;0.00;;;9.30;99.90;;;;;;5055669;28;20429;-73
2022/08/31 05:20:25;;;;;;;0.00;0.00;;;9.30;99.90;;;;;;5054976;28;20049;-73
2022/08/31 05:22:51;;;;;;;0.00;0.00;;;9.40;99.90;;;;;;5055121;28;20404;-74
2022/08/31 05:25:16;;;;;;;0.00;0.00;;;9.40;99.90;;;;;;5055339;28;20102;-73
2022/08/31 05:27:42;;;;;;;18.17;0.32;;;9.40;99.90;;;;;;5054879;28;20041;-73
2022/08/31 05:30:08;;;;;;;0.00;0.00;;;9.40;99.90;;;;;;5054274;28;20049;-73
2022/08/31 05:32:34;;;;;;;0.00;0.00;;;9.50;99.90;;;;;;5053968;28;20045;-75
2022/08/31 05:34:59;;;;;;;0.00;0.00;;;9.60;99.90;;;;;;5053977;28;20460;-73
2022/08/31 05:37:25;;;;;;;0.00;0.00;;;9.70;99.90;;;;;;5054384;28;20052;-73
2022/08/31 05:39:51;;;;;;;0.00;0.00;;;9.70;99.90;;;;;;5054249;28;20422;-73
2022/08/31 05:42:18;;;;;;;0.00;0.00;;;9.80;99.90;;;;;;5054338;28;20040;-73
2022/08/31 05:44:44;;;;;;;1.02;0.65;;;9.90;99.90;;;;;;5053863;28;20052;-73
2022/08/31 05:47:09;;;;;;;0.50;0.40;;;10.00;99.90;;;;;;5053922;28;20399;-73
2022/08/31 05:49:35;;;;;;;0.10;0.10;;;10.00;99.90;;;;;;5054477;28;20069;-72
2022/08/31 05:52:02;;;;;;;0.00;0.00;;;10.10;99.90;;;;;;5053358;28;20041;-73
2022/08/31 05:54:28;;;;;;;2.83;0.32;;;10.20;99.90;;;;;;5053407;28;20047;-73
2022/08/31 05:56:53;;;;;;;0.00;0.00;;;10.30;99.90;;;;;;5053301;28;20040;-73
2022/08/31 05:59:19;;;;;;;0.00;0.00;;;10.50;99.90;;;;;;5053425;28;20040;-73
2022/08/31 06:01:45;;;;;;;0.65;0.63;;;10.50;99.90;;;;;;5054221;28;20045;-73
2022/08/31 06:04:11;;;;;;;0.00;0.00;;;10.60;99.90;;;;;;5055143;28;20040;-73
2022/08/31 06:06:37;;;;;;;0.00;0.00;;;10.70;99.90;;;;;;5056014;28;20793;-73
2022/08/31 06:09:05;;;;;;;0.00;0.00;;;10.90;99.90;;;;;;5056405;28;20044;-72
2022/08/31 06:11:33;;;;;;;0.00;0.00;;;11.00;99.90;;;;;;5055059;28;20045;-73
2022/08/31 06:14:00;;;;;;;0.47;0.28;;;11.10;99.90;;;;;;5055107;28;20067;-74
2022/08/31 06:16:28;;;;;;;21.20;0.47;;;11.70;99.90;;;;;;5053278;28;20072;-73
2022/08/31 06:18:54;;;;;;;0.00;0.00;;;12.90;99.90;;;;;;5053047;28;20041;-75
2022/08/31 06:21:26;;;;;;;0.00;0.00;;;14.00;99.90;;;;;;5052871;28;20121;-74
2022/08/31 06:23:53;;;;;;;0.00;0.00;;;15.00;99.90;;;;;;5050589;28;20044;-73
2022/08/31 06:26:22;;;;;;;0.10;0.10;;;15.70;99.90;;;;;;5049636;28;20045;-75
2022/08/31 06:28:50;;;;;;;0.30;0.13;;;16.40;99.90;;;;;;5050885;28;20048;-75
2022/08/31 06:31:29;;;;;;;0.05;0.00;;;17.00;99.90;;;;;;5051096;28;20438;-75
2022/08/31 06:33:56;;;;;;;0.47;0.47;;;17.40;99.90;;;;;;5050080;28;20041;-74
2022/08/31 06:36:25;;;;;;;0.00;0.00;;;17.70;99.90;;;;;;5050820;28;20128;-74
2022/08/31 06:38:51;;;;;;;0.00;0.00;;;18.10;99.90;;;;;;5041403;28;20052;-74
2022/08/31 06:41:21;;;;;;;0.15;0.15;;;18.40;99.90;;;;;;5047546;28;20041;-74
2022/08/31 06:43:48;;;;;;;1.45;0.80;;;18.50;99.90;;;;;;5049826;28;20124;-75
2022/08/31 06:46:14;;;;;;;0.00;0.00;;;18.60;99.90;;;;;;5049282;28;20033;-73
2022/08/31 06:48:40;;;;;;;0.28;0.10;;;18.70;99.90;;;;;;5049643;28;20140;-75
2022/08/31 06:51:07;;;;;;;0.00;0.00;;;19.00;99.90;;;;;;5044442;28;20119;-75
2022/08/31 06:53:34;;;;;;;0.00;0.00;;;19.20;99.90;;;;;;5048520;28;20388;-74
2022/08/31 06:56:09;;;;;;;0.20;0.20;;;19.30;99.90;;;;;;5048786;28;20084;-74
2022/08/31 06:58:34;;;;;;;0.03;0.03;;;19.10;99.90;;;;;;5043179;28;20407;-75
2022/08/31 07:01:10;;;;;;;0.00;0.00;;;19.30;99.90;;;;;;5045286;28;20123;-75
2022/08/31 07:03:37;;;;;;;0.13;0.13;;;19.50;99.90;;;;;;5046941;28;20147;-75
2022/08/31 07:06:08;;;;;;;0.00;0.00;;;19.80;99.00;;;;;;5051350;28;20689;-74
2022/08/31 07:08:35;;;;;;;0.13;0.10;;;19.80;98.60;;;;;;5052065;28;20090;-73
2022/08/31 07:11:02;;;;;;;0.82;0.38;;;19.90;98.00;;;;;;5051613;28;20090;-76
2022/08/31 07:13:28;;;;;;;0.00;0.00;;;20.00;97.00;;;;;;5051746;28;20149;-74
2022/08/31 07:16:10;;;;;;;0.00;0.00;;;20.50;94.00;;;;;;5051927;28;20045;-74
2022/08/31 07:18:36;;;;;;;3.92;1.27;;;20.30;90.50;;;;;;5039074;28;20098;-74
2022/08/31 07:21:17;;;;;;;0.00;0.00;;;20.00;88.50;;;;;;5054429;28;20056;-73
2022/08/31 07:23:43;;;;;;;0.00;0.00;;;20.30;80.50;;;;;;5054226;28;20407;-74
2022/08/31 07:26:21;;;;;;;0.00;0.00;;;20.40;76.00;;;;;;5054773;28;20045;-74
2022/08/31 07:28:52;;;;;;;0.00;0.00;;;20.10;75.80;;;;;;5054710;28;20037;-74
2022/08/31 07:31:23;;;;;;;1.45;0.47;;;20.20;83.00;;;;;;5054297;28;20491;-73
2022/08/31 07:33:54;;;;;;;0.00;0.00;;;20.20;77.20;;;;;;5054343;28;20119;-73
2022/08/31 07:36:22;;;;;;;1.33;0.45;;;20.60;78.70;;;;;;5054277;28;20060;-73
2022/08/31 07:44:18;;;;;;;0.32;0.17;;;19.70;66.70;;;;;;5054210;28;20495;-73
2022/08/31 07:46:45;;;;;;;0.35;0.10;;;19.60;76.90;;;;;;5054081;28;20049;-73
2022/08/31 07:49:13;;;;;;;0.00;0.00;;;20.00;67.40;;;;;;5054410;28;20123;-73
2022/08/31 07:51:44;;;;;;;0.32;0.20;;;20.00;67.60;;;;;;5054268;28;20094;-73
2022/08/31 07:54:12;;;;;;;0.00;0.00;;;20.20;64.70;;;;;;5054151;28;20060;-74
2022/08/31 07:56:40;;;;;;;0.22;0.22;;;20.60;60.30;;;;;;5054135;28;20045;-74
2022/08/31 07:59:07;;;;;;;0.25;0.22;;;21.10;51.40;;;;;;5053866;28;20107;-73
2022/08/31 08:01:33;;;;;;;0.00;0.00;;;21.20;49.70;;;;;;5053861;28;20089;-73
2022/08/31 08:04:01;;;;;;;0.38;0.38;;;20.90;47.00;;;;;;5054153;28;20090;-73
2022/08/31 08:06:28;;;;;;;1.65;0.22;;;21.20;44.90;;;;;;5053832;28;20439;-74
2022/08/31 08:08:54;;;;;;;0.20;0.20;;;21.20;45.30;;;;;;5053686;28;20048;-73
2022/08/31 08:11:20;;;;;;;0.00;0.00;;;21.70;41.30;;;;;;5053643;28;20407;-74
2022/08/31 08:13:47;;;;;;;0.10;0.10;;;21.90;37.80;;;;;;5053571;28;20136;-74
2022/08/31 08:16:13;;;;;;;0.00;0.00;;;21.90;32.50;;;;;;5053512;28;20091;-74
2022/08/31 08:18:38;;;;;;;0.38;0.30;;;22.30;28.10;;;;;;5053639;28;20040;-74
2022/08/31 08:21:05;;;;;;;0.00;0.00;;;22.20;23.70;;;;;;5053667;28;20495;-74
2022/08/31 08:23:30;;;;;;;0.20;0.10;;;21.50;28.90;;;;;;5053545;28;20045;-74
2022/08/31 08:25:59;;;;;;;0.00;0.00;;;21.80;33.20;;;;;;5053266;28;20613;-73
2022/08/31 08:28:27;;;;;;;0.00;0.00;;;22.10;30.00;;;;;;5053391;28;20507;-74
2022/08/31 08:30:59;;;;;;;0.00;0.00;;;22.20;26.90;;;;;;5053479;28;20103;-73
2022/08/31 08:33:27;;;;;;;0.00;0.00;;;22.00;32.40;;;;;;5053428;28;20399;-74
2022/08/31 08:35:57;;;;;;;0.10;0.10;;;22.70;24.00;;;;;;5053525;28;20080;-74
2022/08/31 08:38:31;;;;;;;0.17;0.13;;;22.40;25.40;;;;;;5053175;28;20041;-73
2022/08/31 08:41:04;;;;;;;0.00;0.00;;;22.70;23.00;;;;;;5053280;28;20070;-75
2022/08/31 08:43:35;;;;;;;0.00;0.00;;;22.70;24.00;;;;;;5053217;28;20116;-74
2022/08/31 08:46:04;;;;;;;0.00;0.00;;;23.10;19.40;;;;;;5053202;28;20041;-73
2022/08/31 08:48:33;;;;;;;0.20;0.15;;;23.20;21.10;;;;;;5053011;28;20045;-74
2022/08/31 08:51:03;;;;;;;0.00;0.00;;;23.40;12.50;;;;;;5052892;28;20082;-73
2022/08/31 08:53:30;;;;;;;0.10;0.10;;;23.50;13.70;;;;;;5053214;28;20428;-73
2022/08/31 08:55:56;;;;;;;0.40;0.32;;;22.90;10.70;;;;;;5053102;28;20076;-74
2022/08/31 08:58:23;;;;;;;0.00;0.00;;;22.90;17.80;;;;;;5053157;28;20526;-74
2022/08/31 09:00:52;;;;;;;0.57;0.30;;;22.50;15.60;;;;;;5052906;28;20048;-73
2022/08/31 09:03:29;;;;;;;0.00;0.00;;;22.30;16.60;;;;;;5052697;28;20041;-74
2022/08/31 09:06:01;;;;;;;0.28;0.10;;;22.70;21.30;;;;;;5052778;28;20059;-73
2022/08/31 09:08:40;;;;;;;0.10;0.10;;;22.70;19.90;;;;;;5052881;28;20131;-73
2022/08/31 09:11:17;;;;;;;0.90;0.47;;;22.50;15.30;;;;;;5053008;28;20057;-74
2022/08/31 09:14:18;;;;;;;0.00;0.00;;;22.50;18.00;;;;;;5052965;28;20041;-74
2022/08/31 09:17:06;;;;;;;0.00;0.00;;;22.50;20.80;;;;;;5052790;28;20080;-73
2022/08/31 09:19:57;;;;;;;0.00;0.00;;;22.70;20.00;;;;;;5052683;28;20049;-74
2022/08/31 09:22:17;;;;;;;0.00;0.00;;;22.20;19.90;;;;;;5052149;28;20060;-74
2022/08/31 09:24:43;;;;;;;0.00;0.00;;;21.40;24.90;;;;;;5052768;28;20037;-74
2022/08/31 09:27:18;;;;;;;0.08;0.08;;;20.90;42.80;;;;;;5051944;28;20041;-73
2022/08/31 09:30:00;;;;;;;0.00;0.00;;;21.50;32.70;;;;;;5052432;28;20045;-73
2022/08/31 09:32:30;;;;;;;0.00;0.00;;;21.90;40.00;;;;;;5052456;28;20415;-73
2022/08/31 09:35:02;;;;;;;0.00;0.00;;;21.80;27.70;;;;;;5052419;28;20054;-73
2022/08/31 09:37:44;;;;;;;0.00;0.00;;;22.00;31.00;;;;;;5052600;28;20049;-74
2022/08/31 09:40:16;;;;;;;0.00;0.00;;;22.40;27.70;;;;;;5052406;28;20036;-73
2022/08/31 09:42:45;;;;;;;0.00;0.00;;;22.80;23.70;;;;;;5052258;28;20044;-74
2022/08/31 09:45:28;;;;;;;0.40;0.38;;;23.00;18.60;;;;;;5052107;28;20049;-74
2022/08/31 09:47:59;;;;;;;0.68;0.20;;;23.10;17.90;;;;;;5052083;28;20484;-73
2022/08/31 09:50:34;;;;;;;0.10;0.10;;;22.90;8.10;;;;;;5052300;28;20041;-74
2022/08/31 09:56:20;;;;;;;0.00;0.00;;;21.40;13.90;;;;;;5052192;28;20057;-73
2022/08/31 09:58:53;;;;;;;0.00;0.00;;;21.60;23.00;;;;;;5048994;28;20457;-75
2022/08/31 10:01:43;;;;;;;0.22;0.10;;;21.70;16.00;;;;;;5048615;28;20041;-73
2022/08/31 10:04:18;;;;;;;0.00;0.00;;;21.50;15.10;;;;;;5048694;28;20045;-74
2022/08/31 10:07:10;;;;;;;0.00;0.00;;;22.00;16.50;;;;;;5048671;28;20044;-73
2022/08/31 10:09:45;;;;;;;0.00;0.00;;;21.50;12.90;;;;;;5048276;28;20411;-73
2022/08/31 10:12:36;;;;;;;0.00;0.00;;;22.00;19.80;;;;;;5048725;28;20098;-74
2022/08/31 10:15:08;;;;;;;0.08;0.08;;;22.40;14.90;;;;;;5048309;28;20048;-74
2022/08/31 10:17:43;;;;;;;0.43;0.17;;;22.10;11.30;;;;;;5048992;28;20045;-74
2022/08/31 10:20:18;;;;;;;0.00;0.00;;;22.00;7.80;;;;;;5046795;28;20095;-74
2022/08/31 10:23:02;;;;;;;0.00;0.00;;;22.10;5.10;;;;;;5045788;28;20041;-74
2022/08/31 10:25:40;;;;;;;0.00;0.00;;;22.20;2.20;;;;;;5043976;28;20037;-74
2022/08/31 10:28:27;;;;;;;0.00;0.00;;;22.60;7.40;;;;;;5046476;28;20053;-74
2022/08/31 10:31:28;;;;;;;0.40;0.32;;;23.10;8.90;;;;;;5048096;28;20515;-73
2022/08/31 10:36:43;;;;;;;1.55;0.40;;;23.70;3.20;;;;;;5047497;28;20132;-75
2022/08/31 10:39:32;;;;;;;0.75;0.40;;;23.60;1.30;;;;;;5049807;28;20037;-74
2022/08/31 10:42:04;;;;;;;0.00;0.00;;;23.50;1.60;;;;;;5051390;28;20664;-74
2022/08/31 10:44:43;;;;;;;0.00;0.00;;;23.60;2.50;;;;;;5033026;28;20124;-75
2022/08/31 10:47:11;;;;;;;0.15;0.10;;;24.10;1.00;;;;;;5032533;28;20120;-75
2022/08/31 10:49:38;;;;;;;0.00;0.00;;;24.30;1.00;;;;;;5032511;28;20511;-74
2022/08/31 10:52:31;;;;;;;0.08;0.05;;;24.10;1.00;;;;;;5046529;28;20041;-75
2022/08/31 10:55:06;;;;;;;0.00;0.00;;;24.00;1.00;;;;;;5051906;28;20048;-75
2022/08/31 10:57:40;;;;;;;0.38;0.32;;;23.90;1.00;;;;;;5051696;28;20496;-74
2022/08/31 11:03:13;;;;;;;0.00;0.00;;;23.60;1.00;;;;;;5051648;28;20049;-73
2022/08/31 11:06:10;;;;;;;0.38;0.15;;;24.00;1.00;;;;;;5051878;28;20040;-75
2022/08/31 11:08:52;;;;;;;0.00;0.00;;;24.10;1.00;;;;;;5033905;28;20112;-73
2022/08/31 11:11:35;;;;;;;0.80;0.32;;;24.10;1.00;;;;;;5049767;28;20088;-73
2022/08/31 11:14:13;;;;;;;0.40;0.30;;;23.60;1.00;;;;;;5050213;28;20047;-75
2022/08/31 11:16:51;;;;;;;0.43;0.20;;;23.90;1.00;;;;;;5051920;28;20095;-75
2022/08/31 11:19:19;;;;;;;0.43;0.10;;;23.70;1.00;;;;;;5049643;28;20118;-74
2022/08/31 11:22:05;;;;;;;0.20;0.15;;;24.00;1.00;;;;;;5051176;28;20564;-74
2022/08/31 11:24:39;;;;;;;0.00;0.00;;;24.20;1.00;;;;;;5049000;28;20048;-74
2022/08/31 11:27:19;;;;;;;0.00;0.00;;;24.70;1.00;;;;;;5049328;28;20041;-74
2022/08/31 11:29:57;;;;;;;0.03;0.00;;;24.90;1.00;;;;;;5049491;28;20044;-73
2022/08/31 11:32:40;;;;;;;3.33;1.35;;;25.30;1.00;;;;;;5049056;28;20045;-74
2022/08/31 11:35:09;;;;;;;0.00;0.00;;;25.30;1.00;;;;;;5049075;28;20121;-74
2022/08/31 11:37:54;;;;;;;0.05;0.05;;;25.60;1.00;;;;;;5051022;28;20037;-73
2022/08/31 11:40:40;;;;;;;0.00;0.00;;;25.80;1.00;;;;;;5050869;28;20129;-74
2022/08/31 11:43:35;;;;;;;0.40;0.20;;;26.20;1.00;;;;;;5051525;28;20056;-74
2022/08/31 11:46:25;;;;;;;0.00;0.00;;;26.60;1.00;;;;;;5042759;28;20134;-74
2022/08/31 11:48:52;;;;;;;0.00;0.00;;;26.70;1.00;;;;;;5051400;28;20056;-74
2022/08/31 11:51:33;;;;;;;0.00;0.00;;;26.60;1.00;;;;;;5050783;28;20056;-74
2022/08/31 11:54:00;;;;;;;0.00;0.00;;;26.70;1.00;;;;;;5051691;28;20175;-74
2022/08/31 11:56:37;;;;;;;0.00;0.00;;;27.00;1.00;;;;;;5051032;28;20060;-74
2022/08/31 11:59:20;;;;;;;0.00;0.00;;;27.00;1.00;;;;;;5051155;28;20045;-74
2022/08/31 12:01:46;;;;;;;0.32;0.30;;;26.60;1.00;;;;;;5050758;28;20049;-74
2022/08/31 12:04:45;;;;;;;0.00;0.00;;;26.50;1.00;;;;;;5050839;28;20044;-74
2022/08/31 12:07:25;;;;;;;0.00;0.00;;;26.30;1.00;;;;;;5018143;28;20132;-73
2022/08/31 12:10:01;;;;;;;2.72;0.80;;;26.50;1.00;;;;;;5048251;28;20098;-75
2022/08/31 12:12:43;;;;;;;7.97;0.20;;;26.40;1.00;;;;;;5047909;28;20045;-74
2022/08/31 12:15:26;;;;;;;0.00;0.00;;;26.90;1.00;;;;;;5048279;28;20037;-75
2022/08/31 12:18:02;;;;;;;0.00;0.00;;;27.20;1.00;;;;;;5048947;28;20052;-76
2022/08/31 12:20:30;;;;;;;0.00;0.00;;;27.20;1.00;;;;;;5050744;28;20079;-75
2022/08/31 12:26:05;;;;;;;0.00;0.00;;;26.00;1.00;;;;;;5050205;28;20057;-76
2022/08/31 12:29:02;;;;;;;0.00;0.00;;;26.00;1.00;;;;;;5050460;28;20049;-75
2022/08/31 12:31:27;;;;;;;0.00;0.00;;;26.50;1.00;;;;;;5050286;28;20238;-74
2022/08/31 12:34:03;;;;;;;0.00;0.00;;;27.20;1.00;;;;;;5050097;28;20219;-75
2022/08/31 12:36:31;;;;;;;0.10;0.10;;;27.80;1.00;;;;;;5050010;28;20048;-75
2022/08/31 12:39:09;;;;;;;0.00;0.00;;;27.70;1.00;;;;;;5049955;28;20110;-74
2022/08/31 12:41:39;;;;;;;0.00;0.00;;;28.10;1.00;;;;;;5050032;28;20049;-74
2022/08/31 12:44:05;;;;;;;0.30;0.10;;;27.50;1.00;;;;;;5050831;28;20064;-74
2022/08/31 12:46:34;;;;;;;0.00;0.00;;;26.20;1.00;;;;;;5052142;28;20044;-74
2022/08/31 12:49:38;;;;;;;0.08;0.08;;;27.00;1.00;;;;;;5052994;28;20087;-75
2022/08/31 12:52:18;;;;;;;0.00;0.00;;;27.40;1.00;;;;;;5049705;28;20045;-75
2022/08/31 12:54:56;;;;;;;0.00;0.00;;;27.60;1.00;;;;;;5052423;28;20041;-74
2022/08/31 12:57:49;;;;;;;0.00;0.00;;;27.60;1.00;;;;;;5051767;28;20056;-75
2022/08/31 13:00:27;;;;;;;0.00;0.00;;;27.60;1.00;;;;;;5052273;28;20123;-74
2022/08/31 13:02:57;;;;;;;0.20;0.10;;;27.30;1.00;;;;;;5051068;28;20448;-75
2022/08/31 13:05:30;;;;;;;0.00;0.00;;;27.30;1.00;;;;;;5051998;28;20045;-75
2022/08/31 13:07:56;;;;;;;0.00;0.00;;;27.60;1.00;;;;;;5051856;28;20495;-75
2022/08/31 13:10:27;;;;;;;0.10;0.10;;;27.60;1.00;;;;;;5052242;28;20053;-74
2022/08/31 13:12:56;;;;;;;0.00;0.00;;;26.80;1.00;;;;;;5052592;28;20049;-74
2022/08/31 13:15:28;;;;;;;0.30;0.20;;;26.50;1.00;;;;;;5034948;28;20045;-74
2022/08/31 13:17:55;;;;;;;0.00;0.00;;;27.00;1.00;;;;;;5049338;28;20040;-74
2022/08/31 13:20:34;;;;;;;0.00;0.00;;;27.80;1.00;;;;;;5052014;28;20044;-74
2022/08/31 13:23:10;;;;;;;0.00;0.00;;;27.70;1.00;;;;;;5050165;28;20041;-74
2022/08/31 13:25:36;;;;;;;0.00;0.00;;;27.30;1.00;;;;;;5032806;28;20140;-75
2022/08/31 13:28:13;;;;;;;0.00;0.00;;;27.80;1.00;;;;;;5051181;28;20116;-76
2022/08/31 13:30:40;;;;;;;0.00;0.00;;;28.40;1.00;;;;;;5050670;28;20053;-75